sensor_id;sensor_type;location;lat;lon;timestamp;pressure;altitude;pressure_sealevel;temperature;humidity
49645;BME280;36494;50.730;-1.932;2024-01-10T00:00:37;102282.28;;;0.05;100.00
49645;BME280;36494;50.730;-1.932;2024-01-10T00:03:02;102282.44;;;0.08;100.00
49645;BME280;36494;50.730;-1.932;2024-01-10T00:05:27;102277.70;;;0.07;100.00
49645;BME280;36494;50.730;-1.932;2024-01-10T00:07:53;102279.10;;;0.06;100.00
49645;BME280;36494;50.730;-1.932;2024-01-10T00:10:18;102276.16;;;0.06;100.00
49645;BME280;36494;50.730;-1.932;2024-01-10T00:12:43;102279.16;;;0.04;100.00
49645;BME280;36494;50.730;-1.932;2024-01-10T00:15:09;102277.69;;;0.01;100.00
49645;BME280;36494;50.730;-1.932;2024-01-10T00:17:34;102274.46;;;-0.08;100.00
49645;BME280;36494;50.730;-1.932;2024-01-10T00:20:00;102272.39;;;-0.01;100.00
49645;BME280;36494;50.730;-1.932;2024-01-10T00:22:25;102267.41;;;-0.03;100.00
49645;BME280;36494;50.730;-1.932;2024-01-10T00:24:51;102266.46;;;-0.04;100.00
49645;BME280;36494;50.730;-1.932;2024-01-10T00:27:16;102268.14;;;-0.12;100.00
49645;BME280;36494;50.730;-1.932;2024-01-10T00:29:42;102266.25;;;-0.07;100.00
49645;BME280;36494;50.730;-1.932;2024-01-10T00:32:07;102266.57;;;-0.10;100.00
49645;BME280;36494;50.730;-1.932;2024-01-10T00:34:33;102266.75;;;-0.12;100.00
49645;BME280;36494;50.730;-1.932;2024-01-10T00:36:58;102262.77;;;-0.14;100.00
49645;BME280;36494;50.730;-1.932;2024-01-10T00:39:24;102264.18;;;-0.13;100.00
49645;BME280;36494;50.730;-1.932;2024-01-10T00:41:49;102262.41;;;-0.16;100.00
49645;BME280;36494;50.730;-1.932;2024-01-10T00:44:14;102264.57;;;-0.25;100.00
49645;BME280;36494;50.730;-1.932;2024-01-10T00:46:40;102263.05;;;-0.21;100.00
49645;BME280;36494;50.730;-1.932;2024-01-10T00:49:05;102262.32;;;-0.26;100.00
49645;BME280;36494;50.730;-1.932;2024-01-10T00:51:31;102258.21;;;-0.28;100.00
49645;BME280;36494;50.730;-1.932;2024-01-10T00:53:56;102253.62;;;-0.36;100.00
49645;BME280;36494;50.730;-1.932;2024-01-10T00:56:22;102257.11;;;-0.29;100.00
49645;BME280;36494;50.730;-1.932;2024-01-10T00:58:48;102257.39;;;-0.34;100.00
49645;BME280;36494;50.730;-1.932;2024-01-10T01:01:13;102256.69;;;-0.31;100.00
49645;BME280;36494;50.730;-1.932;2024-01-10T01:03:38;102260.49;;;-0.40;100.00
49645;BME280;36494;50.730;-1.932;2024-01-10T01:06:04;102261.72;;;-0.37;100.00
49645;BME280;36494;50.730;-1.932;2024-01-10T01:08:30;102264.42;;;-0.39;100.00
49645;BME280;36494;50.730;-1.932;2024-01-10T01:10:55;102264.50;;;-0.40;100.00
49645;BME280;36494;50.730;-1.932;2024-01-10T01:13:21;102264.52;;;-0.44;100.00
49645;BME280;36494;50.730;-1.932;2024-01-10T01:15:46;102265.90;;;-0.40;100.00
49645;BME280;36494;50.730;-1.932;2024-01-10T01:18:12;102264.48;;;-0.43;100.00
49645;BME280;36494;50.730;-1.932;2024-01-10T01:20:38;102264.37;;;-0.43;100.00
49645;BME280;36494;50.730;-1.932;2024-01-10T01:23:03;102267.52;;;-0.45;100.00
49645;BME280;36494;50.730;-1.932;2024-01-10T01:25:28;102268.70;;;-0.46;100.00
49645;BME280;36494;50.730;-1.932;2024-01-10T01:27:53;102263.84;;;-0.50;100.00
49645;BME280;36494;50.730;-1.932;2024-01-10T01:30:19;102266.39;;;-0.52;100.00
49645;BME280;36494;50.730;-1.932;2024-01-10T01:32:45;102264.33;;;-0.52;100.00
49645;BME280;36494;50.730;-1.932;2024-01-10T01:35:10;102264.07;;;-0.56;100.00
49645;BME280;36494;50.730;-1.932;2024-01-10T01:37:36;102266.45;;;-0.58;100.00
49645;BME280;36494;50.730;-1.932;2024-01-10T01:40:01;102265.07;;;-0.55;100.00
49645;BME280;36494;50.730;-1.932;2024-01-10T01:42:27;102263.22;;;-0.53;100.00
49645;BME280;36494;50.730;-1.932;2024-01-10T01:44:52;102261.39;;;-0.55;100.00
49645;BME280;36494;50.730;-1.932;2024-01-10T01:47:18;102256.26;;;-0.56;100.00
49645;BME280;36494;50.730;-1.932;2024-01-10T01:49:43;102256.89;;;-0.59;100.00
49645;BME280;36494;50.730;-1.932;2024-01-10T01:52:09;102257.69;;;-0.56;100.00
49645;BME280;36494;50.730;-1.932;2024-01-10T01:54:35;102257.78;;;-0.58;100.00
49645;BME280;36494;50.730;-1.932;2024-01-10T01:57:02;102255.46;;;-0.65;100.00
49645;BME280;36494;50.730;-1.932;2024-01-10T01:59:25;102257.38;;;-0.59;100.00
49645;BME280;36494;50.730;-1.932;2024-01-10T02:01:52;102257.42;;;-0.60;100.00
49645;BME280;36494;50.730;-1.932;2024-01-10T02:04:16;102259.05;;;-0.65;100.00
49645;BME280;36494;50.730;-1.932;2024-01-10T02:06:42;102256.83;;;-0.65;100.00
49645;BME280;36494;50.730;-1.932;2024-01-10T02:09:08;102258.57;;;-0.64;100.00
49645;BME280;36494;50.730;-1.932;2024-01-10T02:11:33;102257.45;;;-0.68;100.00
49645;BME280;36494;50.730;-1.932;2024-01-10T02:13:58;102254.38;;;-0.67;100.00
49645;BME280;36494;50.730;-1.932;2024-01-10T02:16:24;102256.13;;;-0.70;100.00
49645;BME280;36494;50.730;-1.932;2024-01-10T02:18:50;102252.82;;;-0.70;100.00
49645;BME280;36494;50.730;-1.932;2024-01-10T02:21:15;102252.24;;;-0.71;100.00
49645;BME280;36494;50.730;-1.932;2024-01-10T02:23:40;102248.58;;;-0.69;100.00
49645;BME280;36494;50.730;-1.932;2024-01-10T02:26:06;102248.04;;;-0.71;100.00
49645;BME280;36494;50.730;-1.932;2024-01-10T02:28:31;102251.63;;;-0.73;100.00
49645;BME280;36494;50.730;-1.932;2024-01-10T02:30:57;102249.24;;;-0.75;100.00
49645;BME280;36494;50.730;-1.932;2024-01-10T02:33:27;102248.92;;;-0.77;100.00
49645;BME280;36494;50.730;-1.932;2024-01-10T02:35:48;102249.10;;;-0.79;100.00
49645;BME280;36494;50.730;-1.932;2024-01-10T02:38:13;102249.71;;;-0.78;100.00
49645;BME280;36494;50.730;-1.932;2024-01-10T02:40:39;102246.88;;;-0.82;100.00
49645;BME280;36494;50.730;-1.932;2024-01-10T02:43:04;102245.32;;;-0.83;100.00
49645;BME280;36494;50.730;-1.932;2024-01-10T02:45:31;102241.48;;;-0.82;100.00
49645;BME280;36494;50.730;-1.932;2024-01-10T02:47:55;102239.62;;;-0.87;100.00
49645;BME280;36494;50.730;-1.932;2024-01-10T02:50:20;102236.90;;;-0.92;100.00
49645;BME280;36494;50.730;-1.932;2024-01-10T02:52:46;102235.41;;;-0.90;100.00
49645;BME280;36494;50.730;-1.932;2024-01-10T02:55:11;102232.67;;;-0.92;100.00
49645;BME280;36494;50.730;-1.932;2024-01-10T02:57:37;102234.73;;;-0.93;100.00
49645;BME280;36494;50.730;-1.932;2024-01-10T03:00:13;102237.09;;;-0.91;100.00
49645;BME280;36494;50.730;-1.932;2024-01-10T03:02:28;102237.87;;;-0.93;100.00
49645;BME280;36494;50.730;-1.932;2024-01-10T03:04:53;102238.10;;;-0.93;100.00
49645;BME280;36494;50.730;-1.932;2024-01-10T03:07:19;102235.00;;;-0.93;100.00
49645;BME280;36494;50.730;-1.932;2024-01-10T03:09:44;102236.72;;;-0.94;100.00
49645;BME280;36494;50.730;-1.932;2024-01-10T03:12:11;102237.18;;;-0.93;100.00
49645;BME280;36494;50.730;-1.932;2024-01-10T03:14:36;102238.61;;;-0.90;100.00
49645;BME280;36494;50.730;-1.932;2024-01-10T03:17:01;102237.53;;;-0.91;100.00
49645;BME280;36494;50.730;-1.932;2024-01-10T03:19:30;102240.56;;;-0.89;100.00
49645;BME280;36494;50.730;-1.932;2024-01-10T03:21:52;102240.84;;;-0.87;100.00
49645;BME280;36494;50.730;-1.932;2024-01-10T03:24:18;102244.56;;;-0.84;100.00
49645;BME280;36494;50.730;-1.932;2024-01-10T03:26:43;102243.04;;;-0.83;100.00
49645;BME280;36494;50.730;-1.932;2024-01-10T03:29:09;102244.49;;;-0.81;100.00
49645;BME280;36494;50.730;-1.932;2024-01-10T03:31:38;102243.75;;;-0.80;100.00
49645;BME280;36494;50.730;-1.932;2024-01-10T03:34:00;102246.25;;;-0.78;100.00
49645;BME280;36494;50.730;-1.932;2024-01-10T03:36:25;102248.89;;;-0.78;100.00
49645;BME280;36494;50.730;-1.932;2024-01-10T03:38:51;102248.61;;;-0.74;100.00
49645;BME280;36494;50.730;-1.932;2024-01-10T03:41:17;102253.03;;;-0.75;100.00
49645;BME280;36494;50.730;-1.932;2024-01-10T03:43:45;102252.84;;;-0.73;100.00
49645;BME280;36494;50.730;-1.932;2024-01-10T03:46:07;102252.31;;;-0.74;100.00
49645;BME280;36494;50.730;-1.932;2024-01-10T03:48:33;102255.19;;;-0.73;100.00
49645;BME280;36494;50.730;-1.932;2024-01-10T03:50:58;102261.68;;;-0.69;100.00
49645;BME280;36494;50.730;-1.932;2024-01-10T03:53:24;102260.59;;;-0.70;100.00
49645;BME280;36494;50.730;-1.932;2024-01-10T03:55:50;102262.92;;;-0.67;100.00
49645;BME280;36494;50.730;-1.932;2024-01-10T03:58:15;102264.46;;;-0.66;100.00
49645;BME280;36494;50.730;-1.932;2024-01-10T04:00:40;102259.88;;;-0.64;100.00
49645;BME280;36494;50.730;-1.932;2024-01-10T04:03:06;102259.03;;;-0.64;100.00
49645;BME280;36494;50.730;-1.932;2024-01-10T04:05:32;102256.78;;;-0.61;100.00
49645;BME280;36494;50.730;-1.932;2024-01-10T04:07:57;102260.12;;;-0.58;100.00
49645;BME280;36494;50.730;-1.932;2024-01-10T04:10:23;102257.34;;;-0.58;100.00
49645;BME280;36494;50.730;-1.932;2024-01-10T04:12:49;102258.00;;;-0.63;100.00
49645;BME280;36494;50.730;-1.932;2024-01-10T04:15:15;102259.28;;;-0.58;100.00
49645;BME280;36494;50.730;-1.932;2024-01-10T04:17:40;102258.79;;;-0.58;100.00
49645;BME280;36494;50.730;-1.932;2024-01-10T04:20:07;102251.50;;;-0.58;100.00
49645;BME280;36494;50.730;-1.932;2024-01-10T04:22:31;102248.97;;;-0.59;100.00
49645;BME280;36494;50.730;-1.932;2024-01-10T04:24:57;102248.60;;;-0.64;100.00
49645;BME280;36494;50.730;-1.932;2024-01-10T04:27:22;102246.18;;;-0.63;100.00
49645;BME280;36494;50.730;-1.932;2024-01-10T04:29:48;102246.08;;;-0.66;100.00
49645;BME280;36494;50.730;-1.932;2024-01-10T04:32:13;102243.05;;;-0.68;100.00
49645;BME280;36494;50.730;-1.932;2024-01-10T04:34:39;102242.89;;;-0.69;100.00
49645;BME280;36494;50.730;-1.932;2024-01-10T04:37:04;102240.29;;;-0.65;100.00
49645;BME280;36494;50.730;-1.932;2024-01-10T04:39:30;102242.18;;;-0.69;100.00
49645;BME280;36494;50.730;-1.932;2024-01-10T04:41:55;102243.44;;;-0.68;100.00
49645;BME280;36494;50.730;-1.932;2024-01-10T04:44:21;102243.84;;;-0.70;100.00
49645;BME280;36494;50.730;-1.932;2024-01-10T04:46:46;102240.98;;;-0.70;100.00
49645;BME280;36494;50.730;-1.932;2024-01-10T04:49:12;102239.29;;;-0.71;100.00
49645;BME280;36494;50.730;-1.932;2024-01-10T04:51:38;102242.80;;;-0.74;100.00
49645;BME280;36494;50.730;-1.932;2024-01-10T04:54:03;102242.43;;;-0.78;100.00
49645;BME280;36494;50.730;-1.932;2024-01-10T04:56:29;102240.16;;;-0.75;100.00
49645;BME280;36494;50.730;-1.932;2024-01-10T04:58:54;102243.71;;;-0.73;100.00
49645;BME280;36494;50.730;-1.932;2024-01-10T05:01:20;102247.01;;;-0.80;100.00
49645;BME280;36494;50.730;-1.932;2024-01-10T05:03:45;102245.95;;;-0.82;100.00
49645;BME280;36494;50.730;-1.932;2024-01-10T05:06:11;102245.49;;;-0.85;100.00
49645;BME280;36494;50.730;-1.932;2024-01-10T05:08:39;102246.63;;;-0.83;100.00
49645;BME280;36494;50.730;-1.932;2024-01-10T05:11:02;102246.81;;;-0.82;100.00
49645;BME280;36494;50.730;-1.932;2024-01-10T05:13:27;102245.24;;;-0.85;100.00
49645;BME280;36494;50.730;-1.932;2024-01-10T05:15:53;102242.30;;;-0.86;100.00
49645;BME280;36494;50.730;-1.932;2024-01-10T05:18:18;102245.29;;;-0.85;100.00
49645;BME280;36494;50.730;-1.932;2024-01-10T05:20:45;102242.27;;;-0.88;100.00
49645;BME280;36494;50.730;-1.932;2024-01-10T05:23:10;102246.28;;;-0.85;100.00
49645;BME280;36494;50.730;-1.932;2024-01-10T05:25:35;102243.23;;;-0.85;100.00
49645;BME280;36494;50.730;-1.932;2024-01-10T05:28:01;102243.10;;;-0.91;100.00
49645;BME280;36494;50.730;-1.932;2024-01-10T05:30:26;102242.86;;;-0.93;100.00
49645;BME280;36494;50.730;-1.932;2024-01-10T05:32:55;102245.17;;;-0.90;100.00
49645;BME280;36494;50.730;-1.932;2024-01-10T05:35:18;102244.55;;;-0.97;100.00
49645;BME280;36494;50.730;-1.932;2024-01-10T05:37:43;102246.88;;;-0.99;100.00
49645;BME280;36494;50.730;-1.932;2024-01-10T05:40:09;102244.75;;;-0.94;100.00
49645;BME280;36494;50.730;-1.932;2024-01-10T05:42:34;102245.98;;;-0.99;100.00
49645;BME280;36494;50.730;-1.932;2024-01-10T05:45:00;102248.78;;;-0.97;100.00
49645;BME280;36494;50.730;-1.932;2024-01-10T05:47:25;102247.43;;;-1.01;100.00
49645;BME280;36494;50.730;-1.932;2024-01-10T05:49:51;102248.33;;;-0.97;100.00
49645;BME280;36494;50.730;-1.932;2024-01-10T05:52:16;102247.14;;;-0.95;100.00
49645;BME280;36494;50.730;-1.932;2024-01-10T05:54:42;102250.48;;;-0.95;100.00
49645;BME280;36494;50.730;-1.932;2024-01-10T05:57:07;102249.20;;;-0.94;100.00
49645;BME280;36494;50.730;-1.932;2024-01-10T05:59:33;102250.33;;;-0.92;100.00
49645;BME280;36494;50.730;-1.932;2024-01-10T06:01:58;102246.25;;;-0.93;100.00
49645;BME280;36494;50.730;-1.932;2024-01-10T06:04:24;102253.97;;;-0.90;100.00
49645;BME280;36494;50.730;-1.932;2024-01-10T06:06:49;102253.01;;;-0.88;100.00
49645;BME280;36494;50.730;-1.932;2024-01-10T06:09:18;102258.19;;;-0.88;100.00
49645;BME280;36494;50.730;-1.932;2024-01-10T06:11:41;102260.79;;;-0.86;100.00
49645;BME280;36494;50.730;-1.932;2024-01-10T06:14:06;102262.27;;;-0.82;100.00
49645;BME280;36494;50.730;-1.932;2024-01-10T06:16:31;102261.62;;;-0.79;100.00
49645;BME280;36494;50.730;-1.932;2024-01-10T06:18:57;102262.24;;;-0.79;100.00
49645;BME280;36494;50.730;-1.932;2024-01-10T06:21:22;102263.94;;;-0.77;100.00
49645;BME280;36494;50.730;-1.932;2024-01-10T06:23:48;102268.98;;;-0.76;100.00
49645;BME280;36494;50.730;-1.932;2024-01-10T06:26:13;102266.53;;;-0.74;100.00
49645;BME280;36494;50.730;-1.932;2024-01-10T06:28:38;102266.06;;;-0.72;100.00
49645;BME280;36494;50.730;-1.932;2024-01-10T06:31:04;102266.04;;;-0.71;100.00
49645;BME280;36494;50.730;-1.932;2024-01-10T06:33:30;102264.50;;;-0.69;100.00
49645;BME280;36494;50.730;-1.932;2024-01-10T06:35:55;102260.21;;;-0.69;100.00
49645;BME280;36494;50.730;-1.932;2024-01-10T06:38:21;102260.07;;;-0.66;100.00
49645;BME280;36494;50.730;-1.932;2024-01-10T06:40:46;102256.88;;;-0.66;100.00
49645;BME280;36494;50.730;-1.932;2024-01-10T06:43:12;102258.25;;;-0.66;100.00
49645;BME280;36494;50.730;-1.932;2024-01-10T06:45:37;102255.23;;;-0.69;100.00
49645;BME280;36494;50.730;-1.932;2024-01-10T06:48:03;102257.42;;;-0.68;100.00
49645;BME280;36494;50.730;-1.932;2024-01-10T06:50:28;102256.18;;;-0.69;100.00
49645;BME280;36494;50.730;-1.932;2024-01-10T06:52:54;102257.35;;;-0.72;100.00
49645;BME280;36494;50.730;-1.932;2024-01-10T06:55:19;102254.90;;;-0.72;100.00
49645;BME280;36494;50.730;-1.932;2024-01-10T06:57:45;102257.16;;;-0.73;100.00
49645;BME280;36494;50.730;-1.932;2024-01-10T07:00:11;102262.19;;;-0.76;100.00
49645;BME280;36494;50.730;-1.932;2024-01-10T07:02:36;102263.00;;;-0.76;100.00
49645;BME280;36494;50.730;-1.932;2024-01-10T07:05:01;102264.39;;;-0.79;100.00
49645;BME280;36494;50.730;-1.932;2024-01-10T07:07:27;102264.29;;;-0.79;100.00
49645;BME280;36494;50.730;-1.932;2024-01-10T07:09:55;102264.74;;;-0.83;100.00
49645;BME280;36494;50.730;-1.932;2024-01-10T07:12:18;102262.44;;;-0.83;100.00
49645;BME280;36494;50.730;-1.932;2024-01-10T07:14:43;102260.50;;;-0.82;100.00
49645;BME280;36494;50.730;-1.932;2024-01-10T07:17:09;102266.16;;;-0.83;100.00
49645;BME280;36494;50.730;-1.932;2024-01-10T07:19:34;102267.83;;;-0.85;100.00
49645;BME280;36494;50.730;-1.932;2024-01-10T07:22:00;102269.54;;;-0.85;100.00
49645;BME280;36494;50.730;-1.932;2024-01-10T07:24:25;102269.52;;;-0.87;100.00
49645;BME280;36494;50.730;-1.932;2024-01-10T07:26:50;102270.19;;;-0.92;100.00
49645;BME280;36494;50.730;-1.932;2024-01-10T07:29:16;102268.76;;;-0.89;100.00
49645;BME280;36494;50.730;-1.932;2024-01-10T07:31:42;102267.20;;;-0.91;100.00
49645;BME280;36494;50.730;-1.932;2024-01-10T07:34:07;102268.97;;;-0.91;100.00
49645;BME280;36494;50.730;-1.932;2024-01-10T07:36:33;102272.54;;;-0.92;100.00
49645;BME280;36494;50.730;-1.932;2024-01-10T07:38:58;102273.91;;;-0.94;100.00
49645;BME280;36494;50.730;-1.932;2024-01-10T07:41:24;102278.60;;;-0.96;100.00
49645;BME280;36494;50.730;-1.932;2024-01-10T07:43:49;102282.88;;;-0.99;100.00
49645;BME280;36494;50.730;-1.932;2024-01-10T07:46:14;102282.86;;;-1.01;100.00
49645;BME280;36494;50.730;-1.932;2024-01-10T07:48:40;102283.62;;;-1.04;100.00
49645;BME280;36494;50.730;-1.932;2024-01-10T07:51:05;102288.13;;;-1.06;100.00
49645;BME280;36494;50.730;-1.932;2024-01-10T07:53:31;102287.14;;;-1.09;100.00
49645;BME280;36494;50.730;-1.932;2024-01-10T07:55:56;102289.70;;;-1.12;100.00
49645;BME280;36494;50.730;-1.932;2024-01-10T07:58:23;102290.79;;;-1.15;100.00
49645;BME280;36494;50.730;-1.932;2024-01-10T08:00:47;102292.41;;;-1.17;100.00
49645;BME280;36494;50.730;-1.932;2024-01-10T08:03:13;102290.84;;;-1.19;100.00
49645;BME280;36494;50.730;-1.932;2024-01-10T08:05:38;102290.28;;;-1.21;100.00
49645;BME280;36494;50.730;-1.932;2024-01-10T08:08:04;102291.34;;;-1.24;100.00
49645;BME280;36494;50.730;-1.932;2024-01-10T08:10:29;102291.39;;;-1.26;100.00
49645;BME280;36494;50.730;-1.932;2024-01-10T08:12:54;102293.13;;;-1.26;100.00
49645;BME280;36494;50.730;-1.932;2024-01-10T08:15:20;102294.59;;;-1.28;100.00
49645;BME280;36494;50.730;-1.932;2024-01-10T08:17:46;102295.29;;;-1.29;100.00
49645;BME280;36494;50.730;-1.932;2024-01-10T08:20:11;102296.01;;;-1.31;100.00
49645;BME280;36494;50.730;-1.932;2024-01-10T08:22:36;102298.41;;;-1.30;100.00
49645;BME280;36494;50.730;-1.932;2024-01-10T08:25:02;102296.78;;;-1.32;100.00
49645;BME280;36494;50.730;-1.932;2024-01-10T08:27:28;102298.57;;;-1.34;100.00
49645;BME280;36494;50.730;-1.932;2024-01-10T08:29:53;102302.20;;;-1.31;100.00
49645;BME280;36494;50.730;-1.932;2024-01-10T08:32:19;102300.55;;;-1.33;100.00
49645;BME280;36494;50.730;-1.932;2024-01-10T08:34:48;102299.73;;;-1.29;100.00
49645;BME280;36494;50.730;-1.932;2024-01-10T08:37:09;102305.82;;;-1.25;100.00
49645;BME280;36494;50.730;-1.932;2024-01-10T08:39:35;102306.48;;;-1.20;100.00
49645;BME280;36494;50.730;-1.932;2024-01-10T08:42:01;102303.78;;;-1.17;100.00
49645;BME280;36494;50.730;-1.932;2024-01-10T08:44:26;102304.18;;;-1.16;100.00
49645;BME280;36494;50.730;-1.932;2024-01-10T08:46:53;102308.59;;;-1.13;100.00
49645;BME280;36494;50.730;-1.932;2024-01-10T08:49:17;102310.65;;;-1.11;100.00
49645;BME280;36494;50.730;-1.932;2024-01-10T08:51:43;102309.80;;;-1.10;100.00
49645;BME280;36494;50.730;-1.932;2024-01-10T08:54:08;102312.99;;;-1.07;100.00
49645;BME280;36494;50.730;-1.932;2024-01-10T08:56:34;102317.44;;;-1.04;100.00
49645;BME280;36494;50.730;-1.932;2024-01-10T08:59:03;102317.75;;;-1.00;100.00
49645;BME280;36494;50.730;-1.932;2024-01-10T09:01:25;102320.65;;;-0.94;100.00
49645;BME280;36494;50.730;-1.932;2024-01-10T09:03:50;102322.10;;;-0.91;100.00
49645;BME280;36494;50.730;-1.932;2024-01-10T09:06:16;102323.44;;;-0.87;100.00
49645;BME280;36494;50.730;-1.932;2024-01-10T09:08:41;102320.91;;;-0.82;100.00
49645;BME280;36494;50.730;-1.932;2024-01-10T09:11:10;102320.50;;;-0.77;100.00
49645;BME280;36494;50.730;-1.932;2024-01-10T09:13:32;102322.21;;;-0.72;100.00
49645;BME280;36494;50.730;-1.932;2024-01-10T09:15:58;102321.20;;;-0.66;100.00
49645;BME280;36494;50.730;-1.932;2024-01-10T09:18:23;102323.22;;;-0.62;100.00
49645;BME280;36494;50.730;-1.932;2024-01-10T09:20:49;102324.90;;;-0.55;100.00
49645;BME280;36494;50.730;-1.932;2024-01-10T09:23:15;102322.54;;;-0.52;100.00
49645;BME280;36494;50.730;-1.932;2024-01-10T09:25:40;102320.32;;;-0.47;100.00
49645;BME280;36494;50.730;-1.932;2024-01-10T09:28:05;102324.14;;;-0.42;100.00
49645;BME280;36494;50.730;-1.932;2024-01-10T09:30:31;102325.22;;;-0.39;100.00
49645;BME280;36494;50.730;-1.932;2024-01-10T09:32:56;102319.91;;;-0.35;100.00
49645;BME280;36494;50.730;-1.932;2024-01-10T09:35:22;102320.79;;;-0.35;100.00
49645;BME280;36494;50.730;-1.932;2024-01-10T09:37:47;102319.88;;;-0.34;100.00
49645;BME280;36494;50.730;-1.932;2024-01-10T09:40:14;102320.91;;;-0.32;100.00
49645;BME280;36494;50.730;-1.932;2024-01-10T09:42:38;102326.78;;;-0.25;100.00
49645;BME280;36494;50.730;-1.932;2024-01-10T09:45:05;102324.28;;;-0.22;100.00
49645;BME280;36494;50.730;-1.932;2024-01-10T09:47:31;102328.43;;;-0.18;100.00
49645;BME280;36494;50.730;-1.932;2024-01-10T09:49:54;102331.34;;;-0.13;100.00
49645;BME280;36494;50.730;-1.932;2024-01-10T09:52:24;102329.40;;;-0.08;100.00
49645;BME280;36494;50.730;-1.932;2024-01-10T09:54:46;102330.91;;;-0.02;100.00
49645;BME280;36494;50.730;-1.932;2024-01-10T09:57:11;102331.51;;;0.03;100.00
49645;BME280;36494;50.730;-1.932;2024-01-10T09:59:36;102329.26;;;0.04;100.00
49645;BME280;36494;50.730;-1.932;2024-01-10T10:02:03;102330.09;;;0.09;100.00
49645;BME280;36494;50.730;-1.932;2024-01-10T10:04:27;102330.02;;;0.11;100.00
49645;BME280;36494;50.730;-1.932;2024-01-10T10:06:58;102328.05;;;0.13;100.00
49645;BME280;36494;50.730;-1.932;2024-01-10T10:09:18;102329.49;;;0.14;100.00
49645;BME280;36494;50.730;-1.932;2024-01-10T10:11:43;102329.07;;;0.14;100.00
49645;BME280;36494;50.730;-1.932;2024-01-10T10:19:09;102335.30;;;0.21;100.00
49645;BME280;36494;50.730;-1.932;2024-01-10T10:21:25;102336.08;;;0.24;100.00
49645;BME280;36494;50.730;-1.932;2024-01-10T10:23:58;102332.23;;;0.26;100.00
49645;BME280;36494;50.730;-1.932;2024-01-10T10:26:16;102328.33;;;0.30;100.00
49645;BME280;36494;50.730;-1.932;2024-01-10T10:28:41;102330.41;;;0.33;100.00
49645;BME280;36494;50.730;-1.932;2024-01-10T10:31:07;102330.30;;;0.36;100.00
49645;BME280;36494;50.730;-1.932;2024-01-10T10:33:33;102329.52;;;0.39;100.00
49645;BME280;36494;50.730;-1.932;2024-01-10T10:36:04;102328.94;;;0.40;100.00
49645;BME280;36494;50.730;-1.932;2024-01-10T10:38:24;102330.64;;;0.46;100.00
49645;BME280;36494;50.730;-1.932;2024-01-10T10:40:49;102332.23;;;0.50;100.00
49645;BME280;36494;50.730;-1.932;2024-01-10T10:43:18;102328.62;;;0.54;100.00
49645;BME280;36494;50.730;-1.932;2024-01-10T10:45:42;102330.98;;;0.58;100.00
49645;BME280;36494;50.730;-1.932;2024-01-10T10:48:08;102330.04;;;0.62;100.00
49645;BME280;36494;50.730;-1.932;2024-01-10T10:50:33;102326.15;;;0.64;100.00
49645;BME280;36494;50.730;-1.932;2024-01-10T10:52:57;102333.93;;;0.67;100.00
49645;BME280;36494;50.730;-1.932;2024-01-10T10:55:22;102329.35;;;0.72;100.00
49645;BME280;36494;50.730;-1.932;2024-01-10T10:57:48;102330.07;;;0.76;100.00
49645;BME280;36494;50.730;-1.932;2024-01-10T11:00:14;102327.40;;;0.81;100.00
49645;BME280;36494;50.730;-1.932;2024-01-10T11:02:38;102326.61;;;0.88;100.00
49645;BME280;36494;50.730;-1.932;2024-01-10T11:05:04;102322.86;;;0.99;100.00
49645;BME280;36494;50.730;-1.932;2024-01-10T11:07:29;102321.48;;;1.07;100.00
49645;BME280;36494;50.730;-1.932;2024-01-10T11:09:55;102323.96;;;1.15;100.00
49645;BME280;36494;50.730;-1.932;2024-01-10T11:12:30;102323.25;;;1.20;100.00
49645;BME280;36494;50.730;-1.932;2024-01-10T11:15:01;102320.62;;;1.24;100.00
49645;BME280;36494;50.730;-1.932;2024-01-10T11:17:25;102321.27;;;1.31;100.00
49645;BME280;36494;50.730;-1.932;2024-01-10T11:22:10;102314.61;;;1.45;100.00
49645;BME280;36494;50.730;-1.932;2024-01-10T11:24:27;102313.39;;;1.55;100.00
49645;BME280;36494;50.730;-1.932;2024-01-10T11:29:18;102307.57;;;1.68;100.00
49645;BME280;36494;50.730;-1.932;2024-01-10T11:31:50;102304.22;;;1.73;100.00
49645;BME280;36494;50.730;-1.932;2024-01-10T11:34:09;102303.25;;;1.78;100.00
49645;BME280;36494;50.730;-1.932;2024-01-10T11:36:34;102304.25;;;1.85;100.00
49645;BME280;36494;50.730;-1.932;2024-01-10T11:39:03;102302.13;;;1.90;100.00
49645;BME280;36494;50.730;-1.932;2024-01-10T11:41:28;102298.71;;;1.96;100.00
49645;BME280;36494;50.730;-1.932;2024-01-10T11:46:19;102292.49;;;1.99;100.00
49645;BME280;36494;50.730;-1.932;2024-01-10T11:48:42;102294.46;;;2.05;100.00
49645;BME280;36494;50.730;-1.932;2024-01-10T11:51:08;102293.20;;;2.09;100.00
49645;BME280;36494;50.730;-1.932;2024-01-10T11:53:39;102291.42;;;2.12;100.00
49645;BME280;36494;50.730;-1.932;2024-01-10T11:56:08;102286.57;;;2.16;100.00
49645;BME280;36494;50.730;-1.932;2024-01-10T11:58:27;102281.23;;;2.15;100.00
49645;BME280;36494;50.730;-1.932;2024-01-10T12:00:50;102274.02;;;2.23;100.00
49645;BME280;36494;50.730;-1.932;2024-01-10T12:03:15;102270.25;;;2.25;100.00
49645;BME280;36494;50.730;-1.932;2024-01-10T12:05:40;102267.75;;;2.29;100.00
49645;BME280;36494;50.730;-1.932;2024-01-10T12:08:06;102269.68;;;2.35;100.00
49645;BME280;36494;50.730;-1.932;2024-01-10T12:10:31;102264.81;;;2.41;100.00
49645;BME280;36494;50.730;-1.932;2024-01-10T12:12:56;102265.45;;;2.45;100.00
49645;BME280;36494;50.730;-1.932;2024-01-10T12:15:22;102256.99;;;2.49;100.00
49645;BME280;36494;50.730;-1.932;2024-01-10T12:17:47;102250.88;;;2.50;100.00
49645;BME280;36494;50.730;-1.932;2024-01-10T12:20:13;102249.21;;;2.56;100.00
49645;BME280;36494;50.730;-1.932;2024-01-10T12:22:38;102239.48;;;2.60;100.00
49645;BME280;36494;50.730;-1.932;2024-01-10T12:25:04;102238.99;;;2.64;100.00
49645;BME280;36494;50.730;-1.932;2024-01-10T12:27:29;102237.78;;;2.69;100.00
49645;BME280;36494;50.730;-1.932;2024-01-10T12:29:54;102239.68;;;2.74;100.00
49645;BME280;36494;50.730;-1.932;2024-01-10T12:32:21;102232.99;;;2.78;100.00
49645;BME280;36494;50.730;-1.932;2024-01-10T12:34:47;102232.67;;;2.82;100.00